FATB weather

Thorny Bush Game Lodge Airport
Hoedspruit, Limpopo, South Africa

Public forecast

Using degrees Celsius for public forecast. Weather courtesy of forecast.io.

Closest aviation weather report (METAR) to Thorny Bush Game Lodge Airport

Report is more than 6 hours old.

Closest report is Hoedspruit Air Force Base Airport, 6.9 nm (12.8 km) WNW. Retrieved 2020/02/06 09:00 UTC (14 days ago):

FAHS 060900Z AUTO 03005KT //// // ////// 36/20 Q1013

Closest aviation forecast (TAF) to Thorny Bush Game Lodge Airport

Forecast is more than 12 hours old.

Closest forecast is Hoedspruit Air Force Base Airport, 6.9 nm (12.8 km) WNW. Retrieved 2017/05/23 04:01 UTC (3 years ago):

TAF FAHS 230300Z 2304/2315 VRB02KT CAVOK TX29/2312ZTN12/2304Z